Time;durP1;ratioP1;P1;durP2;ratioP2;P2;SDS_P1;SDS_P2;PMS_P1;PMS_P2;Temp;Humidity;BMP_temperature;BMP_pressure;BME280_temperature;BME280_humidity;BME280_pressure;Samples;Min_cycle;Max_cycle;Signal;HPM_P1;HPM_P2
2023/07/22 00:01:02;;;;;;;12.83;7.40;;;;;;;;;;5051403;28;20557;-48
2023/07/22 00:03:28;;;;;;;9.97;7.40;;;;;;;;;;5049869;28;20418;-50
2023/07/22 00:06:07;;;;;;;10.70;7.80;;;;;;;;;;5051372;28;20456;-49
2023/07/22 00:08:34;;;;;;;12.07;8.00;;;;;;;;;;5051233;28;20445;-49
2023/07/22 00:11:00;;;;;;;12.43;7.60;;;;;;;;;;5051103;28;20495;-49
2023/07/22 00:13:26;;;;;;;12.23;7.83;;;;;;;;;;5051412;28;20409;-50
2023/07/22 00:15:53;;;;;;;9.83;6.97;;;;;;;;;;5043260;28;20463;-47
2023/07/22 00:18:19;;;;;;;11.60;7.80;;;;;;;;;;5049694;28;20413;-46
2023/07/22 00:20:45;;;;;;;10.10;6.93;;;;;;;;;;5048288;28;20972;-47
2023/07/22 00:23:10;;;;;;;10.50;7.50;;;;;;;;;;5046867;28;20422;-49
2023/07/22 00:25:37;;;;;;;13.60;8.17;;;;;;;;;;5050804;28;20445;-49
2023/07/22 00:28:04;;;;;;;11.03;8.17;;;;;;;;;;5051229;28;20408;-49
2023/07/22 00:30:30;;;;;;;8.60;6.93;;;;;;;;;;5050915;28;20941;-47
2023/07/22 00:32:56;;;;;;;10.30;7.07;;;;;;;;;;5051150;28;20409;-50
2023/07/22 00:35:22;;;;;;;10.43;7.30;;;;;;;;;;5051026;28;20929;-49
2023/07/22 00:37:47;;;;;;;8.30;7.10;;;;;;;;;;5051053;28;20413;-49
2023/07/22 00:40:14;;;;;;;10.40;7.37;;;;;;;;;;5050629;28;20437;-49
2023/07/22 00:42:40;;;;;;;10.10;7.70;;;;;;;;;;5051077;28;20428;-50
2023/07/22 00:45:07;;;;;;;11.40;7.93;;;;;;;;;;5050863;28;20460;-50
2023/07/22 00:47:33;;;;;;;11.20;8.30;;;;;;;;;;5051103;28;20380;-50
2023/07/22 00:50:00;;;;;;;10.77;7.33;;;;;;;;;;5050540;28;20539;-48
2023/07/22 00:52:26;;;;;;;11.63;9.03;;;;;;;;;;5051846;28;20420;-50
2023/07/22 00:54:52;;;;;;;8.77;7.00;;;;;;;;;;5054268;28;20416;-47
2023/07/22 00:57:19;;;;;;;9.80;7.17;;;;;;;;;;5054422;28;20449;-46
2023/07/22 00:59:45;;;;;;;8.73;7.63;;;;;;;;;;5053220;28;20437;-49
2023/07/22 01:02:11;;;;;;;11.50;8.00;;;;;;;;;;5053930;28;20390;-49
2023/07/22 01:04:37;;;;;;;9.17;7.83;;;;;;;;;;5045626;28;20449;-49
2023/07/22 01:07:06;;;;;;;13.13;8.07;;;;;;;;;;5049807;28;20409;-50
2023/07/22 01:09:36;;;;;;;16.83;8.43;;;;;;;;;;5053537;28;21157;-50
2023/07/22 01:12:02;;;;;;;10.63;7.70;;;;;;;;;;5054201;28;20436;-49
2023/07/22 01:14:28;;;;;;;10.47;7.30;;;;;;;;;;5054031;28;20418;-50
2023/07/22 01:16:54;;;;;;;11.30;7.63;;;;;;;;;;5054317;28;20409;-49
2023/07/22 01:19:20;;;;;;;11.30;8.00;;;;;;;;;;5054049;28;20788;-49
2023/07/22 01:21:47;;;;;;;10.47;7.93;;;;;;;;;;5051446;28;20856;-48
2023/07/22 01:24:15;;;;;;;10.83;8.17;;;;;;;;;;5050563;28;20418;-49
2023/07/22 01:26:41;;;;;;;12.20;8.73;;;;;;;;;;5053973;28;20411;-48
2023/07/22 01:29:07;;;;;;;11.03;9.30;;;;;;;;;;5052948;28;20945;-48
2023/07/22 01:31:36;;;;;;;8.53;7.03;;;;;;;;;;5053570;28;20471;-50
2023/07/22 01:34:03;;;;;;;11.53;8.73;;;;;;;;;;5053742;28;20423;-50
2023/07/22 01:36:29;;;;;;;11.40;7.93;;;;;;;;;;5053633;28;20420;-49
2023/07/22 01:38:55;;;;;;;12.03;8.10;;;;;;;;;;5053620;28;20408;-47
2023/07/22 01:41:21;;;;;;;9.97;8.17;;;;;;;;;;5052567;28;20467;-49
2023/07/22 01:43:48;;;;;;;14.23;8.07;;;;;;;;;;5053694;28;20432;-49
2023/07/22 01:46:14;;;;;;;8.00;7.03;;;;;;;;;;5053357;28;20467;-49
2023/07/22 01:48:40;;;;;;;10.80;6.83;;;;;;;;;;5049515;28;20490;-48
2023/07/22 01:51:06;;;;;;;13.40;8.83;;;;;;;;;;5053641;28;20499;-48
2023/07/22 01:53:32;;;;;;;17.90;9.30;;;;;;;;;;5053291;28;20925;-49
2023/07/22 01:55:58;;;;;;;12.37;8.13;;;;;;;;;;5052615;28;20945;-49
2023/07/22 01:58:24;;;;;;;9.30;7.57;;;;;;;;;;5053362;28;20787;-50
2023/07/22 02:00:53;;;;;;;11.17;7.60;;;;;;;;;;5053625;28;20922;-45
2023/07/22 02:03:20;;;;;;;9.93;8.07;;;;;;;;;;5050316;28;20409;-45
2023/07/22 02:05:46;;;;;;;10.50;8.23;;;;;;;;;;5052378;28;20555;-46
2023/07/22 02:08:12;;;;;;;11.43;7.43;;;;;;;;;;5053052;28;20493;-44
2023/07/22 02:10:38;;;;;;;13.07;8.97;;;;;;;;;;5053016;28;20410;-43
2023/07/22 02:13:04;;;;;;;11.47;8.13;;;;;;;;;;5052241;28;20409;-44
2023/07/22 02:15:30;;;;;;;10.43;7.77;;;;;;;;;;5052984;28;20428;-43
2023/07/22 02:17:56;;;;;;;9.30;7.57;;;;;;;;;;5053011;28;20408;-44
2023/07/22 02:20:22;;;;;;;11.50;8.00;;;;;;;;;;5052559;28;20512;-44
2023/07/22 02:22:48;;;;;;;11.50;8.03;;;;;;;;;;5052840;28;20410;-44
2023/07/22 02:25:14;;;;;;;9.27;7.97;;;;;;;;;;5052742;28;20464;-44
2023/07/22 02:27:41;;;;;;;10.27;8.20;;;;;;;;;;5051821;28;20432;-44
2023/07/22 02:30:10;;;;;;;11.43;8.00;;;;;;;;;;5049786;28;20516;-43
2023/07/22 02:32:36;;;;;;;11.57;8.03;;;;;;;;;;5052649;28;20775;-44
2023/07/22 02:35:02;;;;;;;9.50;7.80;;;;;;;;;;5052469;28;20421;-46
2023/07/22 02:37:28;;;;;;;11.30;7.97;;;;;;;;;;5052596;28;20413;-45
2023/07/22 02:39:55;;;;;;;14.27;9.10;;;;;;;;;;5052392;28;20508;-45
2023/07/22 02:42:21;;;;;;;10.67;8.10;;;;;;;;;;5047664;28;20408;-46
2023/07/22 02:44:47;;;;;;;12.37;8.23;;;;;;;;;;5052454;28;20465;-45
2023/07/22 02:47:14;;;;;;;15.03;8.27;;;;;;;;;;5052134;28;20434;-47
2023/07/22 02:49:40;;;;;;;11.97;7.50;;;;;;;;;;5052127;28;20437;-47
2023/07/22 02:52:06;;;;;;;14.70;9.20;;;;;;;;;;5050566;28;20496;-46
2023/07/22 02:54:32;;;;;;;9.63;7.87;;;;;;;;;;5052201;28;20414;-44
2023/07/22 02:56:59;;;;;;;11.17;8.33;;;;;;;;;;5051142;28;20392;-46
2023/07/22 02:59:25;;;;;;;13.37;7.90;;;;;;;;;;5052142;28;20419;-45
2023/07/22 03:01:50;;;;;;;10.70;8.37;;;;;;;;;;5051815;28;20932;-45
2023/07/22 03:04:16;;;;;;;13.33;8.10;;;;;;;;;;5051996;28;20901;-44
2023/07/22 03:06:42;;;;;;;13.40;7.97;;;;;;;;;;5052507;28;20944;-44
2023/07/22 03:09:08;;;;;;;11.70;8.13;;;;;;;;;;5052225;28;20541;-43
2023/07/22 03:11:34;;;;;;;10.10;8.00;;;;;;;;;;5051956;28;21026;-44
2023/07/22 03:14:02;;;;;;;9.27;7.90;;;;;;;;;;5051907;28;20933;-44
2023/07/22 03:16:27;;;;;;;10.93;7.63;;;;;;;;;;5051288;28;20427;-44
2023/07/22 03:18:53;;;;;;;11.13;8.57;;;;;;;;;;5051873;28;20802;-44
2023/07/22 03:21:19;;;;;;;9.40;7.70;;;;;;;;;;5051633;28;20763;-44
2023/07/22 03:23:45;;;;;;;11.40;7.37;;;;;;;;;;5051752;28;20409;-44
2023/07/22 03:26:11;;;;;;;11.40;7.93;;;;;;;;;;5051777;28;20434;-44
2023/07/22 03:28:37;;;;;;;10.00;7.83;;;;;;;;;;5050163;28;20452;-44
2023/07/22 03:31:04;;;;;;;9.80;8.20;;;;;;;;;;5051463;28;20777;-46
2023/07/22 03:33:30;;;;;;;10.20;8.57;;;;;;;;;;5051949;28;20409;-44
2023/07/22 03:35:56;;;;;;;9.03;7.13;;;;;;;;;;5052007;28;20423;-44
2023/07/22 03:38:22;;;;;;;12.00;8.17;;;;;;;;;;5046468;28;20499;-46
2023/07/22 03:40:48;;;;;;;8.20;7.30;;;;;;;;;;5050221;28;20955;-47
2023/07/22 03:43:14;;;;;;;13.33;8.30;;;;;;;;;;5051409;28;20380;-47
2023/07/22 03:45:40;;;;;;;12.40;7.73;;;;;;;;;;5051478;28;20774;-44
2023/07/22 03:48:06;;;;;;;11.23;7.00;;;;;;;;;;5051730;28;20416;-44
2023/07/22 03:50:32;;;;;;;9.57;7.90;;;;;;;;;;5047752;28;20456;-45
2023/07/22 03:52:58;;;;;;;10.20;7.00;;;;;;;;;;5050158;28;20421;-44
2023/07/22 03:55:25;;;;;;;8.50;7.60;;;;;;;;;;5051281;28;20409;-44
2023/07/22 03:57:51;;;;;;;10.03;7.87;;;;;;;;;;5051711;28;20420;-43
2023/07/22 04:00:17;;;;;;;11.67;7.63;;;;;;;;;;5051083;28;20421;-44
2023/07/22 04:02:43;;;;;;;12.37;7.83;;;;;;;;;;5051535;28;20521;-43
2023/07/22 04:05:09;;;;;;;8.00;7.20;;;;;;;;;;5051272;28;20468;-44
2023/07/22 04:07:35;;;;;;;9.80;7.67;;;;;;;;;;5051338;28;20409;-44
2023/07/22 04:10:02;;;;;;;12.33;8.20;;;;;;;;;;5051168;28;20835;-44
2023/07/22 04:12:29;;;;;;;14.80;8.37;;;;;;;;;;5051319;28;20476;-43
2023/07/22 04:14:54;;;;;;;11.30;7.30;;;;;;;;;;5049576;28;20409;-47
2023/07/22 04:17:20;;;;;;;10.40;6.77;;;;;;;;;;5051393;28;20905;-44
2023/07/22 04:19:46;;;;;;;10.43;8.10;;;;;;;;;;5051422;28;20955;-44
2023/07/22 04:22:13;;;;;;;10.80;8.37;;;;;;;;;;5051376;28;20418;-48
2023/07/22 04:24:39;;;;;;;11.30;7.97;;;;;;;;;;5051200;28;20488;-44
2023/07/22 04:27:05;;;;;;;9.33;7.10;;;;;;;;;;5051584;28;20444;-44
2023/07/22 04:29:31;;;;;;;10.60;7.50;;;;;;;;;;5052411;28;20425;-44
2023/07/22 04:32:01;;;;;;;14.60;7.83;;;;;;;;;;5054925;28;20405;-45
2023/07/22 04:34:33;;;;;;;11.67;7.30;;;;;;;;;;5054842;28;20417;-44
2023/07/22 04:36:59;;;;;;;10.50;7.20;;;;;;;;;;5050400;28;20424;-45
2023/07/22 04:39:25;;;;;;;9.20;6.43;;;;;;;;;;5053080;28;20441;-46
2023/07/22 04:41:51;;;;;;;8.30;6.87;;;;;;;;;;5054789;28;20508;-48
2023/07/22 04:44:17;;;;;;;7.73;6.90;;;;;;;;;;5054664;28;20500;-46
2023/07/22 04:46:43;;;;;;;12.60;7.20;;;;;;;;;;5055041;28;20505;-44
2023/07/22 04:49:09;;;;;;;9.87;7.07;;;;;;;;;;5054573;28;20410;-49
2023/07/22 04:51:35;;;;;;;8.97;7.37;;;;;;;;;;5048137;28;20420;-44
2023/07/22 04:54:01;;;;;;;11.10;7.10;;;;;;;;;;5048083;28;20493;-44
2023/07/22 04:56:27;;;;;;;10.43;8.07;;;;;;;;;;5051650;28;20423;-45
2023/07/22 04:58:53;;;;;;;8.67;6.60;;;;;;;;;;5054175;28;20440;-45
2023/07/22 05:01:19;;;;;;;10.30;7.50;;;;;;;;;;5051740;28;20475;-44
2023/07/22 05:03:45;;;;;;;9.40;6.20;;;;;;;;;;5049973;28;20870;-43
2023/07/22 05:06:11;;;;;;;6.30;5.40;;;;;;;;;;5054454;28;20477;-44
2023/07/22 05:08:38;;;;;;;8.60;7.03;;;;;;;;;;5054259;28;20506;-45
2023/07/22 05:11:04;;;;;;;8.53;6.60;;;;;;;;;;5045637;28;20414;-45
2023/07/22 05:13:30;;;;;;;7.37;6.23;;;;;;;;;;5050345;28;20853;-46
2023/07/22 05:15:56;;;;;;;8.90;7.20;;;;;;;;;;5054457;28;20409;-48
2023/07/22 05:18:22;;;;;;;10.23;6.00;;;;;;;;;;5054160;28;20411;-44
2023/07/22 05:20:47;;;;;;;8.70;6.20;;;;;;;;;;5047951;28;20452;-44
2023/07/22 05:23:13;;;;;;;8.47;6.40;;;;;;;;;;5053994;28;20889;-44
2023/07/22 05:25:39;;;;;;;7.77;6.10;;;;;;;;;;5052608;28;20844;-43
2023/07/22 05:28:06;;;;;;;7.93;6.77;;;;;;;;;;5054223;28;20406;-44
2023/07/22 05:30:32;;;;;;;6.90;5.80;;;;;;;;;;5053714;28;20444;-44
2023/07/22 05:32:58;;;;;;;7.80;6.50;;;;;;;;;;5053894;28;20392;-44
2023/07/22 05:35:24;;;;;;;7.03;5.80;;;;;;;;;;5053832;28;20417;-43
2023/07/22 05:37:50;;;;;;;9.13;6.00;;;;;;;;;;5053667;28;20416;-46
2023/07/22 05:40:16;;;;;;;10.23;7.33;;;;;;;;;;5053368;28;20450;-47
2023/07/22 05:42:42;;;;;;;7.70;5.70;;;;;;;;;;5053780;28;20416;-47
2023/07/22 05:45:08;;;;;;;6.40;5.80;;;;;;;;;;5053716;28;20514;-44
2023/07/22 05:47:34;;;;;;;8.13;6.13;;;;;;;;;;5053668;28;20941;-44
2023/07/22 05:50:00;;;;;;;7.40;5.63;;;;;;;;;;5053615;28;20456;-44
2023/07/22 05:52:26;;;;;;;10.00;6.13;;;;;;;;;;5052441;28;20414;-44
2023/07/22 05:54:52;;;;;;;6.97;6.10;;;;;;;;;;5053423;28;20408;-44
2023/07/22 05:57:18;;;;;;;13.60;6.10;;;;;;;;;;5049755;28;20895;-45
2023/07/22 05:59:44;;;;;;;8.00;6.20;;;;;;;;;;5053303;28;20443;-44
2023/07/22 06:02:10;;;;;;;7.50;6.30;;;;;;;;;;5053278;28;20547;-45
2023/07/22 06:04:36;;;;;;;6.27;5.67;;;;;;;;;;5045514;28;20453;-46
2023/07/22 06:07:02;;;;;;;8.47;6.27;;;;;;;;;;5052398;28;20895;-46
2023/07/22 06:09:28;;;;;;;7.17;6.13;;;;;;;;;;5053586;28;20484;-43
2023/07/22 06:11:54;;;;;;;6.80;6.10;;;;;;;;;;5053254;28;20763;-44
2023/07/22 06:14:20;;;;;;;8.20;6.60;;;;;;;;;;5053028;28;20764;-44
2023/07/22 06:16:46;;;;;;;8.67;6.03;;;;;;;;;;5053012;28;20381;-44
2023/07/22 06:19:12;;;;;;;6.87;5.40;;;;;;;;;;5053024;28;20779;-44
2023/07/22 06:21:38;;;;;;;7.67;6.70;;;;;;;;;;5050306;28;20505;-45
2023/07/22 06:24:04;;;;;;;9.87;6.97;;;;;;;;;;5052312;28;20407;-45
2023/07/22 06:26:30;;;;;;;8.10;7.03;;;;;;;;;;5052243;28;20462;-45
2023/07/22 06:28:56;;;;;;;7.97;6.40;;;;;;;;;;5052436;28;20793;-48
2023/07/22 06:31:22;;;;;;;12.43;6.67;;;;;;;;;;5047949;28;20419;-46
2023/07/22 06:33:48;;;;;;;6.20;5.60;;;;;;;;;;5044709;28;20857;-47
2023/07/22 06:36:16;;;;;;;8.70;6.83;;;;;;;;;;5052565;28;20396;-44
2023/07/22 06:38:42;;;;;;;10.00;6.40;;;;;;;;;;5047494;28;20909;-44
2023/07/22 06:41:08;;;;;;;7.40;6.70;;;;;;;;;;5052364;28;20829;-45
2023/07/22 06:43:34;;;;;;;7.63;6.40;;;;;;;;;;5054652;28;20482;-50
2023/07/22 06:46:00;;;;;;;8.00;6.70;;;;;;;;;;5052562;28;20944;-50
2023/07/22 06:48:26;;;;;;;8.67;6.33;;;;;;;;;;5052373;28;20389;-48
2023/07/22 06:50:52;;;;;;;8.67;6.50;;;;;;;;;;5050195;28;20426;-48
2023/07/22 06:53:18;;;;;;;11.40;6.40;;;;;;;;;;5049896;28;20458;-47
2023/07/22 06:55:54;;;;;;;9.33;6.60;;;;;;;;;;5052386;28;20423;-50
2023/07/22 06:58:20;;;;;;;10.77;7.13;;;;;;;;;;5051122;28;20400;-50
2023/07/22 07:00:46;;;;;;;7.27;6.43;;;;;;;;;;5052052;28;20451;-48
2023/07/22 07:03:12;;;;;;;13.63;7.00;;;;;;;;;;5052212;28;20442;-50
2023/07/22 07:05:41;;;;;;;9.30;5.77;;;;;;;;;;5051845;28;20435;-48
2023/07/22 07:08:07;;;;;;;8.10;7.27;;;;;;;;;;5051308;28;20891;-50
2023/07/22 07:10:37;;;;;;;11.23;7.57;;;;;;;;;;5051688;28;20417;-50
2023/07/22 07:13:03;;;;;;;9.77;6.70;;;;;;;;;;5052156;28;20413;-48
2023/07/22 07:15:29;;;;;;;8.90;6.73;;;;;;;;;;5046033;28;20515;-49
2023/07/22 07:17:55;;;;;;;10.43;6.90;;;;;;;;;;5048388;28;20481;-49
2023/07/22 07:20:21;;;;;;;9.03;6.07;;;;;;;;;;5051414;28;20506;-47
2023/07/22 07:22:47;;;;;;;8.13;6.33;;;;;;;;;;5052003;28;20433;-48
2023/07/22 07:25:15;;;;;;;8.80;6.87;;;;;;;;;;5051739;28;20551;-47
2023/07/22 07:27:41;;;;;;;7.20;5.90;;;;;;;;;;5046858;28;20410;-49
2023/07/22 07:30:08;;;;;;;7.00;6.30;;;;;;;;;;5051537;28;20397;-49
2023/07/22 07:32:34;;;;;;;7.00;6.10;;;;;;;;;;5051853;28;20392;-50
2023/07/22 07:35:00;;;;;;;8.03;5.70;;;;;;;;;;5051511;28;20523;-48
2023/07/22 07:37:26;;;;;;;12.93;7.10;;;;;;;;;;5045447;28;20406;-49
2023/07/22 07:39:52;;;;;;;6.27;5.13;;;;;;;;;;5051467;28;20437;-50
2023/07/22 07:42:18;;;;;;;8.83;7.30;;;;;;;;;;5050503;28;20905;-47
2023/07/22 07:44:44;;;;;;;8.17;6.07;;;;;;;;;;5051657;28;20791;-47
2023/07/22 07:47:10;;;;;;;8.77;6.60;;;;;;;;;;5051787;28;20752;-49
2023/07/22 07:49:36;;;;;;;8.43;6.97;;;;;;;;;;5051194;28;20478;-49
2023/07/22 07:52:02;;;;;;;7.97;6.40;;;;;;;;;;5051746;28;20931;-49
2023/07/22 07:54:28;;;;;;;8.80;6.50;;;;;;;;;;5051702;28;20395;-50
2023/07/22 07:56:54;;;;;;;7.50;6.10;;;;;;;;;;5050647;28;20414;-50
2023/07/22 07:59:20;;;;;;;9.13;6.20;;;;;;;;;;5051343;28;20527;-49
2023/07/22 08:01:47;;;;;;;9.13;6.30;;;;;;;;;;5051389;28;20402;-47
2023/07/22 08:04:13;;;;;;;11.00;6.70;;;;;;;;;;5056031;28;20401;-46
2023/07/22 08:06:39;;;;;;;9.10;7.03;;;;;;;;;;5055519;28;20471;-44
2023/07/22 08:09:05;;;;;;;7.60;5.73;;;;;;;;;;5055521;28;20427;-45
2023/07/22 08:11:31;;;;;;;8.93;6.90;;;;;;;;;;5054972;28;20900;-44
2023/07/22 08:13:57;;;;;;;7.23;5.80;;;;;;;;;;5055357;28;20415;-46
2023/07/22 08:16:24;;;;;;;8.53;7.00;;;;;;;;;;5054525;28;20407;-48
2023/07/22 08:18:50;;;;;;;7.60;6.30;;;;;;;;;;5055398;28;20481;-44
2023/07/22 08:21:16;;;;;;;11.40;6.90;;;;;;;;;;5055291;28;20554;-44
2023/07/22 08:23:45;;;;;;;7.73;6.40;;;;;;;;;;5055226;28;20390;-44
2023/07/22 08:26:11;;;;;;;8.00;6.23;;;;;;;;;;5055323;28;20881;-44
2023/07/22 08:28:37;;;;;;;8.43;6.57;;;;;;;;;;5055037;28;20979;-44
2023/07/22 08:31:03;;;;;;;7.57;6.23;;;;;;;;;;5054181;28;20776;-46
2023/07/22 08:33:29;;;;;;;11.70;8.00;;;;;;;;;;5054904;28;20446;-44
2023/07/22 08:35:55;;;;;;;7.50;6.13;;;;;;;;;;5055091;28;20451;-44
2023/07/22 08:38:21;;;;;;;9.33;6.37;;;;;;;;;;5053800;28;20415;-45
2023/07/22 08:40:50;;;;;;;7.40;6.70;;;;;;;;;;5054740;28;21042;-45
2023/07/22 08:43:19;;;;;;;8.83;7.73;;;;;;;;;;5055007;28;20423;-47
2023/07/22 08:45:46;;;;;;;8.67;6.93;;;;;;;;;;5054640;28;20457;-44
2023/07/22 08:48:13;;;;;;;9.30;6.10;;;;;;;;;;5054720;28;20421;-47
2023/07/22 08:50:44;;;;;;;8.13;6.87;;;;;;;;;;5046310;28;20808;-44
2023/07/22 08:53:13;;;;;;;12.80;7.30;;;;;;;;;;5054760;28;20445;-44
2023/07/22 08:55:40;;;;;;;10.73;7.37;;;;;;;;;;5044022;28;20402;-44
2023/07/22 08:58:09;;;;;;;10.43;6.70;;;;;;;;;;5050144;28;20455;-44
2023/07/22 09:00:35;;;;;;;11.47;7.43;;;;;;;;;;5053917;28;20425;-43
2023/07/22 09:03:01;;;;;;;10.93;7.10;;;;;;;;;;5054550;28;20409;-44
2023/07/22 09:05:28;;;;;;;9.77;7.37;;;;;;;;;;5054171;28;20794;-44
2023/07/22 09:07:54;;;;;;;8.70;7.20;;;;;;;;;;5054564;28;20428;-47
2023/07/22 09:10:21;;;;;;;8.30;6.70;;;;;;;;;;5053854;28;20437;-44
2023/07/22 09:12:47;;;;;;;7.53;6.83;;;;;;;;;;5053054;28;20414;-45
2023/07/22 09:15:13;;;;;;;7.70;6.90;;;;;;;;;;5054195;28;20421;-45
2023/07/22 09:17:40;;;;;;;9.97;7.03;;;;;;;;;;5054343;28;20777;-44
2023/07/22 09:20:06;;;;;;;6.50;5.80;;;;;;;;;;5053909;28;20441;-44
2023/07/22 09:22:32;;;;;;;7.77;6.97;;;;;;;;;;5054109;28;20444;-44
2023/07/22 09:25:14;;;;;;;8.73;6.70;;;;;;;;;;5046841;28;20466;-45
2023/07/22 09:27:40;;;;;;;6.83;6.13;;;;;;;;;;5046681;28;20408;-44
2023/07/22 09:30:22;;;;;;;7.17;6.13;;;;;;;;;;5053792;28;20433;-44
2023/07/22 09:32:48;;;;;;;7.07;6.23;;;;;;;;;;5047211;28;20404;-44
2023/07/22 09:35:14;;;;;;;7.93;6.77;;;;;;;;;;5053821;28;20492;-45
2023/07/22 09:37:40;;;;;;;10.27;6.50;;;;;;;;;;5053774;28;20490;-47
2023/07/22 09:40:19;;;;;;;6.37;5.73;;;;;;;;;;5053650;28;20995;-47
2023/07/22 09:42:53;;;;;;;6.37;5.77;;;;;;;;;;5053891;28;20405;-44
2023/07/22 09:45:19;;;;;;;11.00;5.40;;;;;;;;;;5051536;28;20457;-44
2023/07/22 09:47:47;;;;;;;6.47;5.90;;;;;;;;;;5049964;28;20470;-46
2023/07/22 09:50:17;;;;;;;6.20;5.60;;;;;;;;;;5053140;28;20464;-47
2023/07/22 09:52:47;;;;;;;5.77;5.20;;;;;;;;;;5053618;28;20819;-44
2023/07/22 09:55:15;;;;;;;6.63;5.90;;;;;;;;;;5053135;28;20800;-44
2023/07/22 09:57:44;;;;;;;5.67;5.17;;;;;;;;;;5053498;28;20976;-44
2023/07/22 10:00:11;;;;;;;6.20;4.97;;;;;;;;;;5053167;28;20436;-45
2023/07/22 10:02:40;;;;;;;7.47;5.10;;;;;;;;;;5053313;28;20402;-44
2023/07/22 10:05:07;;;;;;;6.70;5.40;;;;;;;;;;5053346;28;20457;-44
2023/07/22 10:07:34;;;;;;;6.70;5.80;;;;;;;;;;5053277;28;20476;-48
2023/07/22 10:10:00;;;;;;;7.00;5.10;;;;;;;;;;5052621;28;20487;-45
2023/07/22 10:12:27;;;;;;;6.50;5.27;;;;;;;;;;5053242;28;20413;-44
2023/07/22 10:14:53;;;;;;;5.43;4.90;;;;;;;;;;5053053;28;20405;-48
2023/07/22 10:17:20;;;;;;;8.40;5.50;;;;;;;;;;5053115;28;20421;-48
2023/07/22 10:19:46;;;;;;;6.57;5.23;;;;;;;;;;5052792;28;20886;-48
2023/07/22 10:22:12;;;;;;;6.40;5.20;;;;;;;;;;5052879;28;20488;-45
2023/07/22 10:24:39;;;;;;;6.17;5.10;;;;;;;;;;5052205;28;20496;-44
2023/07/22 10:27:06;;;;;;;8.03;5.83;;;;;;;;;;5052774;28;20500;-44
2023/07/22 10:29:34;;;;;;;5.00;4.50;;;;;;;;;;5052626;28;20433;-48
2023/07/22 10:32:00;;;;;;;6.60;5.30;;;;;;;;;;5047693;28;20421;-44
2023/07/22 10:34:26;;;;;;;5.47;4.97;;;;;;;;;;5052926;28;20492;-44
2023/07/22 10:36:52;;;;;;;5.07;4.53;;;;;;;;;;5052553;28;20500;-44
2023/07/22 10:39:28;;;;;;;7.40;4.90;;;;;;;;;;5052705;28;20426;-45
2023/07/22 10:42:14;;;;;;;6.90;5.53;;;;;;;;;;5052370;28;20393;-45
2023/07/22 10:44:40;;;;;;;5.10;4.60;;;;;;;;;;5043724;28;20417;-47
2023/07/22 10:47:07;;;;;;;4.90;4.50;;;;;;;;;;5050670;28;20441;-48
2023/07/22 10:49:44;;;;;;;6.43;4.70;;;;;;;;;;5045309;28;20445;-45
2023/07/22 10:52:13;;;;;;;5.67;4.80;;;;;;;;;;5052312;28;20416;-44
2023/07/22 10:54:39;;;;;;;5.77;5.17;;;;;;;;;;5045995;28;20405;-48
2023/07/22 10:57:26;;;;;;;6.30;4.30;;;;;;;;;;5052423;28;20910;-44
2023/07/22 10:59:53;;;;;;;6.23;5.30;;;;;;;;;;5045949;28;20435;-45
2023/07/22 11:02:28;;;;;;;5.20;4.57;;;;;;;;;;5052321;28;20411;-44
2023/07/22 11:04:59;;;;;;;4.77;4.37;;;;;;;;;;5051985;28;20463;-44
2023/07/22 11:07:42;;;;;;;5.47;4.97;;;;;;;;;;5052220;28;20419;-44
2023/07/22 11:10:18;;;;;;;6.50;4.60;;;;;;;;;;5051913;28;20428;-46
2023/07/22 11:12:45;;;;;;;4.90;4.40;;;;;;;;;;5043466;28;20394;-46
2023/07/22 11:15:11;;;;;;;5.53;4.77;;;;;;;;;;5048565;28;20492;-44
2023/07/22 11:17:38;;;;;;;5.53;4.30;;;;;;;;;;5051953;28;20776;-45
2023/07/22 11:20:04;;;;;;;4.40;4.00;;;;;;;;;;5051513;28;20504;-44
2023/07/22 11:22:30;;;;;;;4.23;3.83;;;;;;;;;;5052125;28;20441;-45
2023/07/22 11:24:58;;;;;;;3.87;3.57;;;;;;;;;;5051717;28;20559;-45
2023/07/22 11:27:24;;;;;;;3.77;3.47;;;;;;;;;;5052214;28;20421;-48
2023/07/22 11:29:50;;;;;;;3.43;3.13;;;;;;;;;;5047958;28;20456;-49
2023/07/22 11:32:17;;;;;;;6.00;3.00;;;;;;;;;;5048556;28;20411;-47
2023/07/22 11:34:46;;;;;;;3.40;3.20;;;;;;;;;;5051961;28;20402;-44
2023/07/22 11:37:12;;;;;;;3.70;3.03;;;;;;;;;;5051607;28;20924;-44
2023/07/22 11:39:38;;;;;;;3.50;3.07;;;;;;;;;;5051276;28;20986;-46
2023/07/22 11:42:05;;;;;;;2.87;2.50;;;;;;;;;;5051700;28;20405;-44
2023/07/22 11:44:31;;;;;;;4.40;2.93;;;;;;;;;;5051433;28;20772;-44
2023/07/22 11:46:58;;;;;;;2.90;2.70;;;;;;;;;;5051596;28;20416;-44
2023/07/22 11:49:25;;;;;;;3.67;3.37;;;;;;;;;;5051426;28;20540;-45
2023/07/22 11:51:51;;;;;;;3.50;3.20;;;;;;;;;;5051511;28;20420;-44
2023/07/22 11:54:18;;;;;;;4.07;2.70;;;;;;;;;;5051475;28;20416;-44
2023/07/22 11:56:44;;;;;;;3.77;3.20;;;;;;;;;;5051613;28;20411;-48
2023/07/22 11:59:10;;;;;;;5.67;3.27;;;;;;;;;;5051550;28;20813;-45
2023/07/22 12:01:36;;;;;;;3.37;3.07;;;;;;;;;;5051290;28;20498;-48
2023/07/22 12:04:09;;;;;;;4.80;2.83;;;;;;;;;;5051572;28;21125;-44
2023/07/22 12:06:35;;;;;;;3.27;2.97;;;;;;;;;;5051422;28;20501;-44
2023/07/22 12:09:01;;;;;;;3.63;2.87;;;;;;;;;;5051374;28;20471;-46
2023/07/22 12:11:27;;;;;;;3.13;2.93;;;;;;;;;;5051222;28;20409;-47
2023/07/22 12:14:12;;;;;;;2.90;2.70;;;;;;;;;;5051163;28;20416;-45
2023/07/22 12:16:39;;;;;;;6.00;3.07;;;;;;;;;;5043398;28;20402;-45
2023/07/22 12:19:06;;;;;;;2.60;2.40;;;;;;;;;;5048830;28;20425;-44
2023/07/22 12:21:32;;;;;;;5.50;3.17;;;;;;;;;;5051323;28;20417;-44
2023/07/22 12:23:58;;;;;;;4.73;3.43;;;;;;;;;;5051358;28;20420;-44
2023/07/22 12:26:24;;;;;;;3.30;3.03;;;;;;;;;;5051233;28;20514;-44
2023/07/22 12:28:50;;;;;;;3.07;2.87;;;;;;;;;;5051095;28;20442;-48
2023/07/22 12:31:16;;;;;;;3.23;2.93;;;;;;;;;;5042781;28;20409;-45
2023/07/22 12:33:42;;;;;;;3.43;3.13;;;;;;;;;;5031390;28;20836;-44
2023/07/22 12:36:08;;;;;;;3.37;3.13;;;;;;;;;;5050676;28;20421;-46
2023/07/22 12:38:34;;;;;;;2.97;2.77;;;;;;;;;;5035040;28;20511;-46
2023/07/22 12:41:00;;;;;;;4.07;3.10;;;;;;;;;;5044149;28;20448;-48
2023/07/22 12:43:26;;;;;;;2.97;2.60;;;;;;;;;;5051119;28;20442;-47
2023/07/22 12:45:52;;;;;;;2.90;2.70;;;;;;;;;;5051052;28;20883;-44
2023/07/22 12:48:18;;;;;;;2.70;2.50;;;;;;;;;;5051916;28;20409;-44
2023/07/22 12:50:47;;;;;;;4.90;2.83;;;;;;;;;;5054489;28;20435;-44
2023/07/22 12:53:13;;;;;;;2.83;2.63;;;;;;;;;;5055152;28;20497;-47
2023/07/22 12:55:39;;;;;;;2.80;2.60;;;;;;;;;;5053558;28;20528;-44
2023/07/22 12:58:05;;;;;;;3.63;2.80;;;;;;;;;;5052820;28;20476;-47
2023/07/22 13:00:31;;;;;;;2.43;2.30;;;;;;;;;;5052737;28;20960;-44
2023/07/22 13:02:57;;;;;;;2.87;2.57;;;;;;;;;;5053564;28;20413;-44
2023/07/22 13:05:24;;;;;;;5.07;2.47;;;;;;;;;;5053269;28;20830;-44
2023/07/22 13:07:50;;;;;;;2.93;2.73;;;;;;;;;;5054570;28;20783;-45
2023/07/22 13:10:19;;;;;;;3.00;2.77;;;;;;;;;;5053966;28;20905;-44
2023/07/22 13:12:45;;;;;;;5.70;3.27;;;;;;;;;;5054483;28;20488;-46
2023/07/22 13:15:12;;;;;;;5.73;3.10;;;;;;;;;;5054558;28;20492;-47
2023/07/22 13:17:38;;;;;;;8.63;3.20;;;;;;;;;;5054513;28;20409;-47
2023/07/22 13:20:07;;;;;;;4.23;3.83;;;;;;;;;;5053995;28;20442;-47
2023/07/22 13:22:34;;;;;;;3.73;3.03;;;;;;;;;;5054071;28;20504;-44
2023/07/22 13:25:00;;;;;;;8.53;3.17;;;;;;;;;;5054068;28;20559;-47
2023/07/22 13:27:26;;;;;;;3.20;3.00;;;;;;;;;;5054074;28;20409;-44
2023/07/22 13:29:52;;;;;;;3.40;3.10;;;;;;;;;;5053356;28;20425;-44
2023/07/22 13:32:18;;;;;;;2.83;2.63;;;;;;;;;;5051330;28;20406;-44
2023/07/22 13:34:44;;;;;;;3.90;3.50;;;;;;;;;;5053743;28;20416;-44
2023/07/22 13:37:10;;;;;;;3.13;2.80;;;;;;;;;;5047317;28;20424;-45
2023/07/22 13:39:36;;;;;;;3.90;3.50;;;;;;;;;;5053901;28;20437;-51
2023/07/22 13:42:02;;;;;;;4.63;3.30;;;;;;;;;;5052383;28;20416;-47
2023/07/22 13:44:28;;;;;;;3.50;3.20;;;;;;;;;;5052530;28;20444;-48
2023/07/22 13:46:53;;;;;;;3.30;3.00;;;;;;;;;;5053702;28;20413;-44
2023/07/22 13:49:20;;;;;;;3.70;2.93;;;;;;;;;;5053542;28;20436;-44
2023/07/22 13:51:46;;;;;;;3.93;2.90;;;;;;;;;;5053383;28;20409;-44
2023/07/22 13:54:12;;;;;;;3.40;3.20;;;;;;;;;;5053564;28;20508;-44
2023/07/22 13:56:38;;;;;;;3.00;2.70;;;;;;;;;;5053727;28;20413;-46
2023/07/22 13:59:04;;;;;;;4.77;3.07;;;;;;;;;;5053411;28;20432;-44
2023/07/22 14:01:31;;;;;;;5.73;2.87;;;;;;;;;;5050371;28;20494;-44
2023/07/22 14:03:57;;;;;;;3.47;3.17;;;;;;;;;;5055986;28;20931;-50
2023/07/22 14:06:23;;;;;;;3.27;2.97;;;;;;;;;;5052966;28;20548;-50
2023/07/22 14:08:49;;;;;;;3.37;3.03;;;;;;;;;;5051374;28;20433;-50
2023/07/22 14:11:15;;;;;;;3.60;3.10;;;;;;;;;;5053019;28;20417;-50
2023/07/22 14:13:41;;;;;;;2.87;2.60;;;;;;;;;;5053137;28;20867;-50
2023/07/22 14:16:07;;;;;;;3.80;3.50;;;;;;;;;;5051563;28;20963;-49
2023/07/22 14:18:33;;;;;;;3.20;3.00;;;;;;;;;;5051781;28;20953;-47
2023/07/22 14:20:59;;;;;;;3.57;3.30;;;;;;;;;;5052291;28;20559;-50
2023/07/22 14:23:25;;;;;;;3.63;3.03;;;;;;;;;;5052966;28;20420;-50
2023/07/22 14:25:51;;;;;;;3.80;2.73;;;;;;;;;;5052764;28;20457;-49
2023/07/22 14:28:17;;;;;;;6.90;3.13;;;;;;;;;;5053215;28;20480;-50
2023/07/22 14:30:43;;;;;;;5.70;3.10;;;;;;;;;;5052821;28;20787;-49
2023/07/22 14:33:09;;;;;;;3.00;2.43;;;;;;;;;;5052671;28;20782;-49
2023/07/22 14:35:35;;;;;;;4.47;2.80;;;;;;;;;;5041461;28;20536;-49